Ottawa Macdonald-Cartier International Airport
CYOW : rendu visible

Aérodrome :











RETROUVEZ-NOUS SUR...

 
LOGIN :

S'inscrire | Disclaimer

   EN    FR    IT 

 









Légende :    VFR   VFR Marginal   IFR   IFR Intensif   IFR Très Intensif
Visi : 
Plafond : 
>= 8 km
>= 3000ft
5 à 8 km
1000 à 3000 ft
1500m à 5 km
500 à 1000 ft
800 à 1500m
200 à 500 ft
< 800m
< 200 ft
Symboles :   Orages  Brouillard  Fortes neiges  Fortes précipitations  Vent > 20 kt






- Altitude de l'aérodrome : 374 ft
- Code IATA : YOW


CYOW - Ottawa Macdonald-Cartier International

DERNIER METAR :
  • 290900Z 08014KT 15SM BKN037 OVC047 04/M05 A2997 RMK SC6SC2 SLP154

METARs EXPIRÉS :
  • 290800Z 07012KT 15SM OVC047 04/M05 A2999 RMK SC8 SLP162
  • 290700Z 08009KT 15SM BKN049 OVC060 03/M05 A3003 RMK SC6SC2 SLP175

TAF TAF CYOW
Valide du 29 à 09h jusqu'au 30 à 06h UTC


290838Z 2909/3006 07012KT P6SM OVC040
FM291300 08015KT P6SM -RA OVC020
FM291500 09015G25KT 2SM -RA BR OVC006
FM291800 09018G28KT 3SM -SHRA BR OVC007
BECMG 3003/3005 22010G20KT P6SM -SHRA OVC015 RMK NXT FCST BY 291200Z



MET'MAP, la Météo Aéronautique d'un coup d'oeil ! - Copyright ORBIFLY Décembre 2007 - Disclaimer

ORBIFLY MET'MAP TEAM :

Programmation & Développement : Alexandra Zaïnal
Sur une idée originale de : Baudouin d'Aumeries
Assistance à la programmation : Marc-Olivier Méhu
Soutien technique & logistique : Manuel Goepfert

Contact : metmap@orbifly.com




SOURCES & CREDITS :

   NOAA       Earth
Advisory